createdAt,value
2023-04-07T00:03:35.786Z,14.70
2023-04-07T00:08:39.243Z,12.70
2023-04-07T00:13:42.662Z,14.30
2023-04-07T00:18:48.228Z,17.17
2023-04-07T00:23:52.816Z,15.50
2023-04-07T00:28:56.398Z,12.27
2023-04-07T00:34:01.169Z,13.37
2023-04-07T00:39:04.710Z,16.80
2023-04-07T00:44:08.179Z,15.33
2023-04-07T00:49:13.418Z,18.03
2023-04-07T00:54:17.011Z,14.30
2023-04-07T00:59:22.044Z,11.77
2023-04-07T01:04:33.449Z,14.57
2023-04-07T01:09:42.672Z,13.40
2023-04-07T01:14:52.120Z,14.43
2023-04-07T01:20:17.551Z,14.80
2023-04-07T01:25:32.960Z,11.53
2023-04-07T01:30:41.876Z,15.13
2023-04-07T01:35:47.432Z,14.30
2023-04-07T01:40:52.332Z,15.80
2023-04-07T01:45:58.440Z,13.83
2023-04-07T01:51:02.181Z,13.50
2023-04-07T01:56:06.798Z,14.50
2023-04-07T02:01:15.481Z,15.77
2023-04-07T02:06:23.563Z,14.47
2023-04-07T02:11:28.616Z,14.87
2023-04-07T02:16:39.011Z,17.23
2023-04-07T02:21:43.755Z,14.87
2023-04-07T02:26:47.853Z,14.93
2023-04-07T02:31:52.828Z,18.47
2023-04-07T02:36:56.548Z,17.00
2023-04-07T02:42:00.421Z,17.50
2023-04-07T02:47:07.644Z,14.03
2023-04-07T02:52:11.177Z,14.80
2023-04-07T02:57:14.961Z,17.20
2023-04-07T03:02:20.371Z,14.53
2023-04-07T03:07:24.295Z,17.60
2023-04-07T03:12:31.510Z,17.47
2023-04-07T03:17:36.719Z,17.80
2023-04-07T03:22:41.800Z,14.83
2023-04-07T03:27:52.446Z,17.30
2023-04-07T03:32:58.408Z,21.67
2023-04-07T03:38:01.962Z,18.30
2023-04-07T03:43:06.051Z,19.43
2023-04-07T03:48:12.238Z,19.03
2023-04-07T03:53:24.606Z,19.10
2023-04-07T03:58:29.461Z,19.77
2023-04-07T04:03:35.389Z,18.73
2023-04-07T04:08:53.320Z,22.47
2023-04-07T04:13:58.236Z,17.90
2023-04-07T04:19:03.344Z,21.87
2023-04-07T04:24:07.989Z,19.60
2023-04-07T04:29:11.742Z,21.37
2023-04-07T04:34:18.932Z,21.10
2023-04-07T04:39:23.494Z,22.23
2023-04-07T04:44:27.757Z,22.67
2023-04-07T04:49:32.753Z,24.60
2023-04-07T04:54:38.970Z,19.93
2023-04-07T04:59:42.573Z,21.97
2023-04-07T05:04:47.596Z,24.53
2023-04-07T05:10:10.980Z,23.33
2023-04-07T05:15:21.666Z,21.73
2023-04-07T05:20:29.215Z,20.63
2023-04-07T05:25:33.899Z,20.67
2023-04-07T05:30:41.052Z,26.33
2023-04-07T05:35:47.252Z,22.57
2023-04-07T05:40:51.880Z,23.13
2023-04-07T05:46:01.321Z,24.33
2023-04-07T05:51:06.494Z,24.00
2023-04-07T05:56:10.420Z,22.13
2023-04-07T06:01:22.711Z,22.87
2023-04-07T06:06:28.791Z,23.77
2023-04-07T06:11:32.286Z,23.20
2023-04-07T06:16:36.019Z,25.23
2023-04-07T06:21:41.217Z,25.30
2023-04-07T06:26:46.814Z,22.83
2023-04-07T06:31:50.256Z,23.40
2023-04-07T06:36:58.197Z,21.93
2023-04-07T06:42:02.924Z,25.10
2023-04-07T06:47:12.320Z,27.17
2023-04-07T06:52:17.080Z,24.40
2023-04-07T06:57:20.541Z,24.87
2023-04-07T07:02:24.354Z,25.57
2023-04-07T07:07:29.323Z,26.03
2023-04-07T07:12:33.521Z,25.03
2023-04-07T07:17:37.013Z,26.13
2023-04-07T07:22:41.974Z,23.03
2023-04-07T07:27:45.334Z,25.27
2023-04-07T07:32:48.825Z,21.40
2023-04-07T07:37:53.896Z,24.40
2023-04-07T07:42:57.673Z,21.80
2023-04-07T07:48:01.401Z,24.57
2023-04-07T07:53:06.583Z,27.00
2023-04-07T07:58:10.388Z,21.00
2023-04-07T08:03:14.154Z,22.00
2023-04-07T08:08:19.351Z,20.77
2023-04-07T08:13:22.736Z,23.57
2023-04-07T08:18:26.530Z,20.77
2023-04-07T08:23:31.317Z,23.23
2023-04-07T08:28:34.841Z,20.20
2023-04-07T08:33:38.596Z,21.13
2023-04-07T08:38:45.237Z,20.00
2023-04-07T08:43:50.696Z,24.03
2023-04-07T08:48:56.993Z,20.87
2023-04-07T08:54:08.526Z,19.63
2023-04-07T08:59:14.138Z,22.73
2023-04-07T09:04:18.936Z,19.10
2023-04-07T09:09:24.494Z,21.23
2023-04-07T09:14:28.288Z,21.10
2023-04-07T09:19:32.447Z,18.43
2023-04-07T09:24:37.267Z,20.97
2023-04-07T09:29:42.221Z,17.30
2023-04-07T09:34:45.649Z,17.47
2023-04-07T09:39:54.645Z,19.13
2023-04-07T09:44:58.070Z,17.37
2023-04-07T09:50:07.125Z,19.73
2023-04-07T09:55:12.364Z,21.83
2023-04-07T10:00:17.326Z,21.17
2023-04-07T10:05:22.732Z,18.80
2023-04-07T10:10:28.900Z,19.67
2023-04-07T10:15:32.680Z,17.50
2023-04-07T10:20:38.109Z,16.60
2023-04-07T10:25:45.927Z,17.13
2023-04-07T10:30:50.711Z,15.23
2023-04-07T10:36:08.259Z,21.07
2023-04-07T10:41:35.634Z,16.40
2023-04-07T10:47:04.800Z,17.53
2023-04-07T10:52:25.303Z,16.77
2023-04-07T10:57:30.383Z,12.93
2023-04-07T11:02:35.508Z,15.23
2023-04-07T11:07:51.403Z,16.37
2023-04-07T11:13:07.881Z,16.93
2023-04-07T11:18:17.358Z,14.03
2023-04-07T11:23:23.163Z,18.20
2023-04-07T11:28:28.156Z,14.93
2023-04-07T11:33:35.028Z,13.33
2023-04-07T11:38:39.965Z,14.77
2023-04-07T11:43:45.109Z,19.80
2023-04-07T11:48:49.032Z,18.13
2023-04-07T11:53:57.323Z,13.07
2023-04-07T11:59:02.799Z,13.33
2023-04-07T12:04:06.524Z,15.10
2023-04-07T12:09:10.838Z,13.73
2023-04-07T12:14:15.653Z,16.57
2023-04-07T12:19:19.193Z,14.63
2023-04-07T12:24:24.048Z,13.13
2023-04-07T12:29:30.108Z,14.70
2023-04-07T12:34:34.792Z,13.10
2023-04-07T12:39:38.537Z,13.20
2023-04-07T12:44:43.314Z,12.43
2023-04-07T12:49:48.548Z,12.53
2023-04-07T12:54:53.594Z,14.27
2023-04-07T12:59:58.977Z,13.07
2023-04-07T13:05:02.733Z,12.33
2023-04-07T13:10:09.413Z,12.07
2023-04-07T13:15:14.462Z,12.57
2023-04-07T13:20:20.610Z,12.00
2023-04-07T13:25:24.600Z,12.20
2023-04-07T13:30:29.455Z,17.77
2023-04-07T13:35:36.082Z,12.27
2023-04-07T13:40:39.578Z,12.63
2023-04-07T13:45:44.738Z,11.13
2023-04-07T13:50:48.185Z,14.27
2023-04-07T13:55:51.737Z,12.83
2023-04-07T14:00:57.206Z,14.37
2023-04-07T14:06:01.413Z,16.97
2023-04-07T14:11:05.284Z,13.03
2023-04-07T14:16:10.172Z,12.67
2023-04-07T14:21:13.628Z,11.33
2023-04-07T14:26:17.293Z,14.00
2023-04-07T14:31:22.159Z,9.80
2023-04-07T14:36:25.693Z,12.33
2023-04-07T14:41:29.894Z,15.47
2023-04-07T14:46:34.687Z,12.93
2023-04-07T14:51:38.593Z,12.43
2023-04-07T14:56:42.553Z,12.40
2023-04-07T15:01:47.426Z,12.40
2023-04-07T15:06:51.096Z,13.97
2023-04-07T15:11:56.403Z,11.67
2023-04-07T15:17:01.274Z,10.27
2023-04-07T15:22:04.951Z,11.30
2023-04-07T15:27:10.932Z,15.60
2023-04-07T15:32:16.020Z,15.80
2023-04-07T15:37:19.741Z,14.50
2023-04-07T15:42:23.263Z,23.13
2023-04-07T15:47:28.135Z,20.20
2023-04-07T15:52:32.180Z,22.80
2023-04-07T15:57:35.613Z,24.43
2023-04-07T16:02:40.699Z,25.43
2023-04-07T16:07:44.524Z,25.17
2023-04-07T16:12:48.433Z,26.07
2023-04-07T16:17:53.573Z,25.03
2023-04-07T16:22:57.093Z,25.60
2023-04-07T16:28:00.472Z,27.00
2023-04-07T16:33:05.578Z,24.70
2023-04-07T16:38:09.228Z,30.50
2023-04-07T16:43:12.961Z,28.20
2023-04-07T16:48:17.775Z,24.53
2023-04-07T16:53:21.840Z,26.43
2023-04-07T16:58:25.964Z,25.53
2023-04-07T17:03:31.291Z,27.47
2023-04-07T17:08:35.135Z,31.83
2023-04-07T17:13:40.259Z,28.97
2023-04-07T17:18:45.307Z,29.53
2023-04-07T17:23:49.024Z,30.30
2023-04-07T17:28:52.999Z,33.30
2023-04-07T17:33:57.798Z,31.77
2023-04-07T17:39:03.043Z,30.37
2023-04-07T17:44:09.599Z,29.97
2023-04-07T17:49:14.651Z,30.97
2023-04-07T17:54:18.050Z,30.23
2023-04-07T17:59:21.817Z,29.23
2023-04-07T18:04:28.904Z,32.97
2023-04-07T18:09:32.938Z,29.13
2023-04-07T18:14:36.724Z,31.47
2023-04-07T18:19:41.618Z,29.43
2023-04-07T18:24:45.362Z,30.17
2023-04-07T18:29:48.798Z,29.33
2023-04-07T18:34:54.951Z,27.17
2023-04-07T18:39:58.616Z,31.33
2023-04-07T18:45:02.302Z,30.10
2023-04-07T18:50:09.832Z,30.50
2023-04-07T18:55:13.305Z,29.20
2023-04-07T19:00:17.048Z,28.37
2023-04-07T19:05:23.753Z,33.23
2023-04-07T19:10:29.208Z,31.30
2023-04-07T19:15:38.396Z,31.37
2023-04-07T19:20:43.464Z,31.43
2023-04-07T19:25:47.008Z,34.00
2023-04-07T19:30:50.463Z,31.53
2023-04-07T19:35:55.545Z,31.87
2023-04-07T19:40:58.933Z,30.67
2023-04-07T19:46:03.658Z,30.37
2023-04-07T19:51:08.695Z,34.53
2023-04-07T19:56:13.984Z,29.63
2023-04-07T20:01:18.280Z,30.60
2023-04-07T20:06:26.826Z,34.73
2023-04-07T20:11:30.361Z,40.63
2023-04-07T20:16:34.211Z,35.50
2023-04-07T20:21:39.021Z,29.57
2023-04-07T20:26:42.445Z,29.47
2023-04-07T20:31:46.179Z,30.73
2023-04-07T20:36:51.033Z,29.03
2023-04-07T20:41:54.489Z,29.83
2023-04-07T20:46:58.240Z,32.27
2023-04-07T20:52:03.033Z,30.40
2023-04-07T20:57:06.450Z,34.33
2023-04-07T21:02:09.947Z,37.33
2023-04-07T21:07:15.150Z,33.63
2023-04-07T21:12:18.653Z,35.53
2023-04-07T21:17:22.070Z,33.93
2023-04-07T21:22:28.196Z,37.47
2023-04-07T21:27:31.990Z,38.80
2023-04-07T21:32:35.403Z,34.23
2023-04-07T21:37:40.426Z,31.50
2023-04-07T21:42:43.829Z,33.80
2023-04-07T21:47:47.759Z,31.47
2023-04-07T21:52:54.517Z,33.80
2023-04-07T21:57:58.266Z,31.83
2023-04-07T22:03:01.911Z,36.10
2023-04-07T22:08:07.047Z,35.50
2023-04-07T22:13:10.747Z,33.30
2023-04-07T22:18:14.115Z,30.60
2023-04-07T22:23:18.946Z,35.10
2023-04-07T22:28:22.490Z,36.03
2023-04-07T22:33:25.994Z,33.30
2023-04-07T22:38:31.062Z,31.67
2023-04-07T22:43:34.580Z,35.70
2023-04-07T22:48:38.041Z,35.67
2023-04-07T22:53:42.866Z,33.40
2023-04-07T22:58:46.426Z,29.67
2023-04-07T23:03:49.871Z,30.40
2023-04-07T23:08:55.005Z,34.27
2023-04-07T23:13:58.492Z,35.50
2023-04-07T23:19:02.266Z,33.07
2023-04-07T23:24:07.514Z,33.37
2023-04-07T23:29:11.049Z,31.87
2023-04-07T23:34:14.794Z,32.07
2023-04-07T23:39:19.597Z,33.03
2023-04-07T23:44:23.334Z,34.33
2023-04-07T23:49:28.112Z,34.37
2023-04-07T23:54:32.881Z,31.37
2023-04-07T23:59:36.284Z,32.53
